Time;durP1;ratioP1;P1;durP2;ratioP2;P2;SDS_P1;SDS_P2;PMS_P1;PMS_P2;Temp;Humidity;BMP_temperature;BMP_pressure;BME280_temperature;BME280_humidity;BME280_pressure;Samples;Min_cycle;Max_cycle;Signal;HPM_P1;HPM_P2
2022/07/11 00:00:21;;;;;;;4.32;3.55;;;;;;;;;;10234872;28;20057;-63
2022/07/11 00:05:20;;;;;;;5.38;3.92;;;;;;;;;;10234422;28;20069;-64
2022/07/11 00:10:18;;;;;;;5.18;4.10;;;;;;;;;;10234246;28;20052;-64
2022/07/11 00:15:18;;;;;;;7.90;3.50;;;;;;;;;;10247001;28;20080;-63
2022/07/11 00:20:16;;;;;;;6.68;4.07;;;;;;;;;;10234185;28;20081;-64
2022/07/11 00:25:15;;;;;;;6.78;3.92;;;;;;;;;;10234629;28;20054;-64
2022/07/11 00:30:13;;;;;;;13.60;4.43;;;;;;;;;;10234467;28;20048;-64
2022/07/11 00:35:13;;;;;;;4.03;3.72;;;;;;;;;;10249742;28;20096;-64
2022/07/11 00:40:11;;;;;;;6.05;3.70;;;;;;;;;;10254361;28;20081;-64
2022/07/11 00:45:10;;;;;;;4.25;3.85;;;;;;;;;;10254163;28;20073;-64
2022/07/11 00:50:08;;;;;;;4.47;3.58;;;;;;;;;;10254580;28;20080;-64
2022/07/11 00:55:10;;;;;;;3.83;3.53;;;;;;;;;;10255558;28;20080;-64
2022/07/11 01:00:10;;;;;;;3.90;3.42;;;;;;;;;;10253939;28;20077;-63
2022/07/11 01:05:09;;;;;;;3.42;3.10;;;;;;;;;;10254427;28;20073;-64
2022/07/11 01:10:09;;;;;;;5.32;3.72;;;;;;;;;;10240964;28;20077;-64
2022/07/11 01:15:08;;;;;;;4.43;3.55;;;;;;;;;;10241197;28;20084;-64
2022/07/11 01:20:07;;;;;;;3.80;3.25;;;;;;;;;;10240548;28;20503;-63
2022/07/11 01:25:07;;;;;;;5.60;3.60;;;;;;;;;;10241000;28;20112;-64
2022/07/11 01:30:06;;;;;;;4.95;3.42;;;;;;;;;;10253828;28;20085;-64
2022/07/11 01:35:04;;;;;;;5.20;4.20;;;;;;;;;;10253562;28;20088;-64
2022/07/11 01:40:03;;;;;;;6.47;4.30;;;;;;;;;;10253128;28;20181;-64
2022/07/11 01:45:03;;;;;;;4.35;3.63;;;;;;;;;;10254381;28;20072;-64
2022/07/11 01:50:01;;;;;;;6.13;3.33;;;;;;;;;;10239434;28;20065;-64
2022/07/11 01:54:59;;;;;;;4.32;3.58;;;;;;;;;;10239163;28;20073;-64
2022/07/11 01:59:58;;;;;;;3.80;3.38;;;;;;;;;;10239101;28;20069;-67
2022/07/11 02:04:57;;;;;;;7.95;4.13;;;;;;;;;;10249033;28;20084;-66
2022/07/11 02:09:56;;;;;;;4.53;4.13;;;;;;;;;;10238886;28;20048;-66
2022/07/11 02:14:54;;;;;;;7.97;4.03;;;;;;;;;;10238857;28;20077;-66
2022/07/11 02:19:53;;;;;;;6.10;4.80;;;;;;;;;;10238842;28;20065;-67
2022/07/11 02:24:53;;;;;;;4.10;3.78;;;;;;;;;;10246628;28;20077;-66
2022/07/11 02:29:51;;;;;;;9.27;3.60;;;;;;;;;;10238454;28;20049;-66
2022/07/11 02:34:49;;;;;;;5.93;4.15;;;;;;;;;;10231787;28;20546;-65
2022/07/11 02:39:48;;;;;;;3.78;3.45;;;;;;;;;;10238158;28;20077;-65
2022/07/11 02:44:48;;;;;;;4.93;3.78;;;;;;;;;;10250423;28;20084;-65
2022/07/11 02:49:47;;;;;;;6.55;4.68;;;;;;;;;;10250296;28;20050;-66
2022/07/11 02:54:46;;;;;;;6.32;3.50;;;;;;;;;;10245269;28;20077;-66
2022/07/11 02:59:44;;;;;;;3.70;3.40;;;;;;;;;;10247775;28;20467;-66
2022/07/11 03:04:44;;;;;;;6.10;4.20;;;;;;;;;;10249709;28;20108;-66
2022/07/11 03:09:42;;;;;;;4.10;3.67;;;;;;;;;;10249194;28;20041;-66
2022/07/11 03:14:40;;;;;;;7.00;4.03;;;;;;;;;;10248267;28;20085;-66
2022/07/11 03:19:39;;;;;;;4.28;3.60;;;;;;;;;;10249225;28;20049;-66
2022/07/11 03:24:41;;;;;;;3.97;3.58;;;;;;;;;;10248127;28;20073;-67
2022/07/11 03:29:39;;;;;;;6.70;3.50;;;;;;;;;;10248508;28;20077;-66
2022/07/11 03:34:37;;;;;;;6.05;3.70;;;;;;;;;;10248067;28;20069;-66
2022/07/11 03:39:36;;;;;;;4.78;3.88;;;;;;;;;;10247556;28;20080;-66
2022/07/11 03:44:35;;;;;;;5.05;4.18;;;;;;;;;;10245272;28;20079;-66
2022/07/11 03:49:34;;;;;;;5.38;4.20;;;;;;;;;;10248050;28;20084;-66
2022/07/11 03:54:32;;;;;;;8.85;4.18;;;;;;;;;;10241986;28;20081;-66
2022/07/11 03:59:30;;;;;;;5.55;4.38;;;;;;;;;;10248638;28;20529;-66
2022/07/11 04:04:30;;;;;;;5.32;4.10;;;;;;;;;;10226727;28;20061;-66
2022/07/11 04:09:28;;;;;;;8.50;6.75;;;;;;;;;;10245087;28;20056;-66
2022/07/11 04:14:27;;;;;;;11.20;7.40;;;;;;;;;;10247986;28;20103;-67
2022/07/11 04:19:25;;;;;;;31.40;24.23;;;;;;;;;;10246905;28;20084;-66
2022/07/11 04:24:25;;;;;;;15.57;11.90;;;;;;;;;;10247462;28;20533;-67
2022/07/11 04:29:23;;;;;;;8.45;4.97;;;;;;;;;;10247194;28;20077;-66
2022/07/11 04:34:21;;;;;;;5.90;4.10;;;;;;;;;;10245239;28;20081;-66
2022/07/11 04:39:20;;;;;;;5.07;4.47;;;;;;;;;;10246318;28;20072;-66
2022/07/11 04:44:19;;;;;;;5.60;4.45;;;;;;;;;;10247095;28;20048;-65
2022/07/11 04:49:18;;;;;;;5.40;4.45;;;;;;;;;;10245899;28;20502;-65
2022/07/11 04:54:17;;;;;;;6.50;4.10;;;;;;;;;;10245741;28;20042;-65
2022/07/11 04:59:15;;;;;;;6.28;4.60;;;;;;;;;;10246122;28;20069;-64
2022/07/11 05:04:15;;;;;;;5.82;4.70;;;;;;;;;;10246257;28;20545;-66
2022/07/11 05:09:13;;;;;;;5.22;4.72;;;;;;;;;;10232958;28;20419;-65
2022/07/11 05:14:11;;;;;;;8.07;4.93;;;;;;;;;;10233099;28;20113;-64
2022/07/11 05:19:10;;;;;;;6.32;5.00;;;;;;;;;;10232990;28;20498;-65
2022/07/11 05:24:09;;;;;;;5.93;5.38;;;;;;;;;;10254182;28;20080;-65
2022/07/11 05:29:08;;;;;;;5.45;4.85;;;;;;;;;;10240230;28;20054;-65
2022/07/11 05:34:06;;;;;;;6.75;4.80;;;;;;;;;;10240693;28;20049;-65
2022/07/11 05:39:05;;;;;;;6.13;4.32;;;;;;;;;;10239028;28;20083;-66
2022/07/11 05:44:05;;;;;;;10.82;4.13;;;;;;;;;;10253167;28;20052;-65
2022/07/11 05:49:03;;;;;;;8.98;4.32;;;;;;;;;;10253056;28;20491;-65
2022/07/11 05:54:01;;;;;;;5.20;3.75;;;;;;;;;;10251697;28;20083;-66
2022/07/11 05:59:00;;;;;;;8.18;4.40;;;;;;;;;;10252723;28;20076;-68
2022/07/11 06:04:00;;;;;;;5.65;4.03;;;;;;;;;;10252557;28;20056;-66
2022/07/11 06:08:59;;;;;;;10.77;4.50;;;;;;;;;;10246498;28;20088;-65
2022/07/11 06:13:57;;;;;;;6.50;4.43;;;;;;;;;;10251954;28;20091;-65
2022/07/11 06:18:58;;;;;;;5.03;4.30;;;;;;;;;;10251296;28;20083;-67
2022/07/11 06:23:57;;;;;;;4.90;3.60;;;;;;;;;;10251613;28;20053;-65
2022/07/11 06:28:57;;;;;;;7.50;4.35;;;;;;;;;;10251745;28;20144;-66
2022/07/11 06:33:56;;;;;;;5.45;3.88;;;;;;;;;;10230231;28;20127;-66
2022/07/11 06:38:54;;;;;;;3.72;3.08;;;;;;;;;;10237703;28;20076;-65
2022/07/11 06:43:54;;;;;;;4.45;3.50;;;;;;;;;;10238065;28;20076;-66
2022/07/11 06:48:52;;;;;;;4.53;3.63;;;;;;;;;;10247183;28;20072;-66
2022/07/11 06:53:52;;;;;;;4.30;3.22;;;;;;;;;;10250126;28;20506;-66
2022/07/11 06:58:50;;;;;;;5.53;3.08;;;;;;;;;;10247830;28;20114;-66
2022/07/11 07:03:51;;;;;;;4.47;3.90;;;;;;;;;;10249503;28;20041;-66
2022/07/11 07:08:49;;;;;;;4.35;3.17;;;;;;;;;;10249947;28;20079;-66
2022/07/11 07:13:49;;;;;;;3.22;2.92;;;;;;;;;;10249790;28;20045;-66
2022/07/11 07:18:50;;;;;;;5.28;4.30;;;;;;;;;;10249284;28;20079;-66
2022/07/11 07:23:50;;;;;;;7.38;3.00;;;;;;;;;;10248379;28;20080;-66
2022/07/11 07:28:48;;;;;;;6.13;2.67;;;;;;;;;;10248894;28;20068;-66
2022/07/11 07:33:47;;;;;;;4.90;3.00;;;;;;;;;;10248803;28;20069;-66
2022/07/11 07:38:46;;;;;;;5.15;2.58;;;;;;;;;;10246240;28;20084;-66
2022/07/11 07:43:49;;;;;;;5.63;2.35;;;;;;;;;;10247440;28;20127;-67
2022/07/11 07:48:47;;;;;;;5.00;2.83;;;;;;;;;;10247671;28;20455;-66
2022/07/11 07:53:45;;;;;;;7.15;2.72;;;;;;;;;;10247398;28;20087;-65
2022/07/11 07:58:54;;;;;;;6.55;2.80;;;;;;;;;;10247046;28;20075;-65
2022/07/11 08:03:52;;;;;;;3.28;2.55;;;;;;;;;;10242844;28;20064;-65
2022/07/11 08:08:51;;;;;;;4.10;2.88;;;;;;;;;;10235400;28;20056;-66
2022/07/11 08:13:49;;;;;;;2.97;2.33;;;;;;;;;;10234906;28;20077;-66
2022/07/11 08:18:49;;;;;;;2.92;2.10;;;;;;;;;;10241137;28;20096;-65
2022/07/11 08:23:47;;;;;;;3.85;2.17;;;;;;;;;;10247153;28;20081;-66
2022/07/11 08:28:46;;;;;;;4.50;2.00;;;;;;;;;;10247155;28;20080;-65
2022/07/11 08:33:44;;;;;;;4.82;2.00;;;;;;;;;;10246559;28;20044;-66
2022/07/11 08:38:46;;;;;;;3.00;1.70;;;;;;;;;;10246468;28;20080;-66
2022/07/11 08:43:44;;;;;;;2.38;1.75;;;;;;;;;;10246206;28;20080;-66
2022/07/11 08:48:43;;;;;;;3.53;2.80;;;;;;;;;;10246548;28;20061;-67
2022/07/11 08:53:44;;;;;;;3.85;1.90;;;;;;;;;;10246673;28;20080;-66
2022/07/11 08:58:48;;;;;;;6.18;1.60;;;;;;;;;;10246888;28;20095;-66
2022/07/11 09:03:53;;;;;;;2.65;1.60;;;;;;;;;;10244857;28;20073;-66
2022/07/11 09:08:51;;;;;;;4.43;1.90;;;;;;;;;;10256371;28;20576;-67
2022/07/11 09:13:51;;;;;;;4.15;2.40;;;;;;;;;;10254442;28;20087;-67
2022/07/11 09:18:49;;;;;;;5.35;2.08;;;;;;;;;;10254914;28;20495;-67
2022/07/11 09:29:05;;;;;;;2.67;2.03;;;;;;;;;;10254585;28;20524;-67
2022/07/11 09:34:05;;;;;;;4.68;2.10;;;;;;;;;;10252998;28;20049;-67
2022/07/11 09:39:04;;;;;;;2.83;1.60;;;;;;;;;;10253507;28;20625;-66
2022/07/11 09:44:11;;;;;;;5.15;1.70;;;;;;;;;;10253244;28;20069;-66
2022/07/11 09:49:10;;;;;;;1.95;1.45;;;;;;;;;;10251061;28;20085;-66
2022/07/11 09:54:09;;;;;;;1.60;1.50;;;;;;;;;;10250328;28;20123;-65
2022/07/11 09:59:09;;;;;;;6.35;2.17;;;;;;;;;;10252489;28;20085;-66
2022/07/11 10:04:09;;;;;;;4.10;1.60;;;;;;;;;;10251952;28;20069;-67
2022/07/11 10:09:15;;;;;;;2.70;1.23;;;;;;;;;;10251177;28;20490;-66
2022/07/11 10:14:15;;;;;;;1.80;1.25;;;;;;;;;;10231791;28;20068;-67
2022/07/11 10:19:31;;;;;;;4.97;1.83;;;;;;;;;;10238957;28;20518;-65
2022/07/11 10:24:35;;;;;;;1.65;1.55;;;;;;;;;;10251412;28;20515;-66
2022/07/11 10:29:35;;;;;;;4.00;2.20;;;;;;;;;;10251577;28;20075;-67
2022/07/11 10:34:35;;;;;;;3.70;1.50;;;;;;;;;;10250864;28;20046;-66
2022/07/11 10:39:34;;;;;;;4.57;2.17;;;;;;;;;;10250399;28;20081;-66
2022/07/11 10:44:48;;;;;;;3.22;1.55;;;;;;;;;;10250149;28;20073;-67
2022/07/11 10:49:51;;;;;;;2.13;1.10;;;;;;;;;;10250664;28;20407;-67
2022/07/11 10:54:59;;;;;;;3.20;1.38;;;;;;;;;;10251063;28;20049;-66
2022/07/11 10:59:59;;;;;;;6.47;1.88;;;;;;;;;;10237295;28;20073;-66
2022/07/11 11:04:59;;;;;;;2.97;1.50;;;;;;;;;;10236419;28;20049;-66
2022/07/11 11:09:58;;;;;;;2.92;1.50;;;;;;;;;;10237096;28;20080;-66
2022/07/11 11:15:11;;;;;;;6.70;2.15;;;;;;;;;;10248415;28;20061;-67
2022/07/11 11:20:31;;;;;;;5.38;2.58;;;;;;;;;;10248368;28;20092;-67
2022/07/11 11:25:29;;;;;;;5.75;1.58;;;;;;;;;;10250216;28;20057;-66
2022/07/11 11:30:27;;;;;;;5.88;2.33;;;;;;;;;;10250641;28;20411;-66
2022/07/11 11:35:27;;;;;;;5.88;1.90;;;;;;;;;;10249739;28;20088;-66
2022/07/11 11:40:29;;;;;;;8.00;2.53;;;;;;;;;;10249034;28;20072;-66
2022/07/11 11:45:27;;;;;;;2.58;1.48;;;;;;;;;;10249511;28;20045;-66
2022/07/11 11:50:27;;;;;;;3.67;1.70;;;;;;;;;;10249568;28;20038;-66
2022/07/11 11:55:25;;;;;;;3.10;1.40;;;;;;;;;;10235692;28;20049;-67
2022/07/11 12:00:26;;;;;;;4.90;1.35;;;;;;;;;;10228959;28;20081;-66
2022/07/11 12:05:58;;;;;;;5.30;1.38;;;;;;;;;;10235069;28;20085;-67
2022/07/11 12:10:57;;;;;;;5.68;1.63;;;;;;;;;;10245117;28;20089;-67
2022/07/11 12:21:14;;;;;;;3.50;1.20;;;;;;;;;;10249876;28;20092;-67
2022/07/11 12:26:12;;;;;;;2.47;1.08;;;;;;;;;;10255230;28;20375;-66
2022/07/11 12:31:11;;;;;;;1.10;1.00;;;;;;;;;;10254710;28;20073;-66
2022/07/11 12:36:09;;;;;;;2.85;0.85;;;;;;;;;;10262206;28;20045;-66
2022/07/11 12:41:09;;;;;;;2.38;1.00;;;;;;;;;;10261636;28;20080;-66
2022/07/11 12:46:07;;;;;;;1.65;1.10;;;;;;;;;;10261860;28;20454;-66
2022/07/11 12:51:06;;;;;;;2.83;1.50;;;;;;;;;;10241043;28;20079;-66
2022/07/11 12:56:04;;;;;;;2.03;1.80;;;;;;;;;;10247603;28;20076;-66
2022/07/11 13:01:04;;;;;;;3.15;1.15;;;;;;;;;;10248091;28;20103;-66
2022/07/11 13:06:03;;;;;;;2.78;1.80;;;;;;;;;;10261481;28;20080;-67
2022/07/11 13:11:03;;;;;;;3.75;1.40;;;;;;;;;;10260624;28;20045;-67
2022/07/11 13:16:07;;;;;;;1.58;1.30;;;;;;;;;;10260586;28;20080;-67
2022/07/11 13:21:07;;;;;;;4.57;1.27;;;;;;;;;;10259919;28;20501;-66
2022/07/11 13:26:07;;;;;;;6.15;2.22;;;;;;;;;;10259241;28;20533;-67
2022/07/11 13:31:08;;;;;;;2.05;1.30;;;;;;;;;;10259719;28;20462;-68
2022/07/11 13:36:13;;;;;;;3.03;1.58;;;;;;;;;;10259682;28;20077;-66
2022/07/11 13:41:11;;;;;;;5.15;1.33;;;;;;;;;;10257557;28;20081;-67
2022/07/11 13:46:18;;;;;;;2.22;1.48;;;;;;;;;;10253389;28;20096;-67
2022/07/11 13:51:22;;;;;;;4.03;1.48;;;;;;;;;;10239971;28;20045;-67
2022/07/11 13:56:21;;;;;;;7.68;1.65;;;;;;;;;;10240173;28;20050;-67
2022/07/11 14:01:20;;;;;;;4.75;1.05;;;;;;;;;;10239423;28;20077;-67
2022/07/11 14:06:19;;;;;;;1.13;1.02;;;;;;;;;;10251706;28;20104;-65
2022/07/11 14:11:37;;;;;;;3.50;1.25;;;;;;;;;;10249663;28;20076;-65
2022/07/11 14:16:37;;;;;;;7.13;2.67;;;;;;;;;;10238152;28;20060;-66
2022/07/11 14:21:35;;;;;;;4.75;1.58;;;;;;;;;;10250148;28;20077;-66
2022/07/11 14:26:34;;;;;;;3.53;1.70;;;;;;;;;;10252483;28;20053;-67
2022/07/11 14:31:33;;;;;;;4.70;2.17;;;;;;;;;;10239265;28;20048;-67
2022/07/11 14:36:33;;;;;;;4.75;1.67;;;;;;;;;;10238406;28;20052;-67
2022/07/11 14:41:31;;;;;;;5.93;2.58;;;;;;;;;;10228767;28;20049;-66
2022/07/11 14:46:30;;;;;;;3.83;2.35;;;;;;;;;;10252376;28;20049;-65
2022/07/11 14:51:28;;;;;;;3.90;2.67;;;;;;;;;;10253709;28;20103;-67
2022/07/11 14:56:48;;;;;;;2.67;1.48;;;;;;;;;;10236711;28;20080;-67
2022/07/11 15:01:47;;;;;;;5.20;1.73;;;;;;;;;;10236506;28;20541;-67
2022/07/11 15:17:18;;;;;;;2.30;1.58;;;;;;;;;;10240833;28;20069;-67
2022/07/11 15:22:19;;;;;;;3.38;1.67;;;;;;;;;;10248387;28;20079;-67
2022/07/11 15:27:18;;;;;;;6.28;1.77;;;;;;;;;;10249784;28;20068;-67
2022/07/11 15:32:17;;;;;;;4.00;2.10;;;;;;;;;;10248537;28;20052;-66
2022/07/11 15:37:15;;;;;;;6.05;2.13;;;;;;;;;;10247795;28;20498;-68
2022/07/11 15:42:13;;;;;;;2.80;1.73;;;;;;;;;;10244511;28;20080;-67
2022/07/11 15:47:13;;;;;;;3.25;1.88;;;;;;;;;;10239579;28;20467;-67
2022/07/11 15:52:12;;;;;;;4.53;2.00;;;;;;;;;;10239160;28;20510;-67
2022/07/11 15:57:10;;;;;;;7.05;2.15;;;;;;;;;;10246825;28;20041;-67
2022/07/11 16:02:09;;;;;;;7.32;1.60;;;;;;;;;;10238007;28;20066;-67
2022/07/11 16:07:09;;;;;;;7.38;2.83;;;;;;;;;;10239154;28;20075;-66
2022/07/11 16:12:07;;;;;;;4.90;2.38;;;;;;;;;;10248442;28;20068;-66
2022/07/11 16:17:06;;;;;;;6.28;2.58;;;;;;;;;;10240581;28;20064;-66
2022/07/11 16:22:05;;;;;;;8.55;2.63;;;;;;;;;;10242091;28;20053;-67
2022/07/11 16:27:05;;;;;;;3.58;2.22;;;;;;;;;;10234815;28;20537;-66
2022/07/11 16:32:04;;;;;;;3.60;1.88;;;;;;;;;;10220600;28;20068;-67
2022/07/11 16:37:02;;;;;;;4.75;1.70;;;;;;;;;;10237139;28;20057;-65
2022/07/11 16:47:18;;;;;;;5.90;2.28;;;;;;;;;;10236289;28;20045;-65
2022/07/11 16:52:16;;;;;;;4.93;1.50;;;;;;;;;;10247727;28;20140;-64
2022/07/11 16:57:15;;;;;;;2.42;2.22;;;;;;;;;;10246755;28;20080;-64
2022/07/11 17:02:14;;;;;;;3.50;1.77;;;;;;;;;;10240340;28;20099;-64
2022/07/11 17:07:14;;;;;;;3.15;1.60;;;;;;;;;;10249423;28;20072;-64
2022/07/11 17:12:12;;;;;;;3.58;2.35;;;;;;;;;;10248223;28;20100;-63
2022/07/11 17:17:10;;;;;;;6.95;2.10;;;;;;;;;;10248742;28;20072;-64
2022/07/11 17:22:09;;;;;;;3.20;1.63;;;;;;;;;;10254036;28;20282;-64
2022/07/11 17:27:09;;;;;;;4.13;1.40;;;;;;;;;;10254467;28;20397;-64
2022/07/11 17:32:07;;;;;;;8.13;2.95;;;;;;;;;;10253722;28;20044;-64
2022/07/11 17:37:06;;;;;;;2.70;1.75;;;;;;;;;;10247961;28;20056;-63
2022/07/11 17:42:04;;;;;;;1.85;1.40;;;;;;;;;;10254218;28;20580;-64
2022/07/11 17:47:04;;;;;;;7.68;2.08;;;;;;;;;;10254011;28;20044;-64
2022/07/11 17:52:03;;;;;;;5.53;1.92;;;;;;;;;;10242468;28;20084;-64
2022/07/11 17:57:01;;;;;;;3.80;1.55;;;;;;;;;;10247544;28;20083;-64
2022/07/11 18:01:59;;;;;;;2.92;1.75;;;;;;;;;;10247844;28;20149;-64
2022/07/11 18:06:59;;;;;;;3.70;1.67;;;;;;;;;;10250352;28;20479;-63
2022/07/11 18:11:58;;;;;;;2.00;1.63;;;;;;;;;;10251032;28;20461;-64
2022/07/11 18:16:59;;;;;;;2.72;1.65;;;;;;;;;;10251579;28;20529;-64
2022/07/11 18:21:58;;;;;;;8.68;2.30;;;;;;;;;;10252290;28;20068;-64
2022/07/11 18:26:57;;;;;;;3.92;1.35;;;;;;;;;;10251754;28;20045;-65
2022/07/11 18:31:55;;;;;;;4.03;1.85;;;;;;;;;;10251947;28;20497;-64
2022/07/11 18:36:54;;;;;;;5.22;2.03;;;;;;;;;;10250754;28;20080;-63
2022/07/11 18:41:53;;;;;;;4.00;1.80;;;;;;;;;;10250947;28;20076;-64
2022/07/11 18:46:52;;;;;;;4.30;1.65;;;;;;;;;;10245727;28;20049;-64
2022/07/11 18:51:50;;;;;;;5.95;1.40;;;;;;;;;;10250928;28;20048;-65
2022/07/11 18:56:49;;;;;;;3.70;1.27;;;;;;;;;;10241759;28;20095;-64
2022/07/11 19:01:48;;;;;;;7.63;1.10;;;;;;;;;;10249006;28;20079;-65
2022/07/11 19:06:49;;;;;;;6.80;1.50;;;;;;;;;;10249742;28;20139;-64
2022/07/11 19:11:48;;;;;;;6.43;1.63;;;;;;;;;;10248821;28;20045;-64
2022/07/11 19:16:46;;;;;;;2.80;1.55;;;;;;;;;;10248734;28;20087;-64
2022/07/11 19:21:46;;;;;;;2.80;1.35;;;;;;;;;;10247562;28;20095;-64
2022/07/11 19:26:44;;;;;;;2.35;1.77;;;;;;;;;;10248080;28;20561;-63
2022/07/11 19:31:43;;;;;;;12.13;2.22;;;;;;;;;;10247689;28;20529;-64
2022/07/11 19:36:41;;;;;;;4.95;2.10;;;;;;;;;;10247657;28;20049;-65
2022/07/11 19:41:42;;;;;;;5.57;1.80;;;;;;;;;;10241924;28;20072;-64
2022/07/11 19:46:40;;;;;;;3.05;2.10;;;;;;;;;;10247177;28;20535;-64
2022/07/11 19:51:38;;;;;;;2.97;2.08;;;;;;;;;;10244658;28;20079;-64
2022/07/11 20:01:54;;;;;;;4.35;1.60;;;;;;;;;;10235249;28;20081;-63
2022/07/11 20:06:53;;;;;;;3.92;2.08;;;;;;;;;;10245155;28;20073;-64
2022/07/11 20:11:51;;;;;;;3.88;1.75;;;;;;;;;;10243597;28;20069;-63
2022/07/11 20:16:49;;;;;;;3.35;1.67;;;;;;;;;;10234526;28;20124;-63
2022/07/11 20:21:49;;;;;;;4.90;1.73;;;;;;;;;;10233939;28;20479;-64
2022/07/11 20:26:48;;;;;;;6.18;2.25;;;;;;;;;;10237097;28;20091;-63
2022/07/11 20:31:46;;;;;;;4.28;1.70;;;;;;;;;;10247564;28;20502;-63
2022/07/11 20:36:45;;;;;;;2.97;1.83;;;;;;;;;;10246931;28;20072;-64
2022/07/11 20:41:44;;;;;;;2.97;1.60;;;;;;;;;;10246836;28;20080;-64
2022/07/11 20:46:51;;;;;;;2.97;1.60;;;;;;;;;;10244799;28;20077;-62
2022/07/11 20:51:49;;;;;;;3.92;1.40;;;;;;;;;;10249467;28;20068;-63
2022/07/11 20:56:49;;;;;;;3.80;1.77;;;;;;;;;;10254176;28;20143;-62
2022/07/11 21:01:47;;;;;;;5.20;1.67;;;;;;;;;;10254168;28;20076;-64
2022/07/11 21:06:46;;;;;;;2.88;1.60;;;;;;;;;;10254219;28;20053;-63
2022/07/11 21:11:44;;;;;;;2.08;1.52;;;;;;;;;;10250281;28;20041;-64
2022/07/11 21:16:46;;;;;;;6.40;1.30;;;;;;;;;;10241188;28;20093;-64
2022/07/11 21:21:45;;;;;;;3.70;1.30;;;;;;;;;;10241347;28;20092;-64
2022/07/11 21:26:43;;;;;;;3.58;1.38;;;;;;;;;;10236363;28;20069;-65
2022/07/11 21:31:42;;;;;;;5.38;1.40;;;;;;;;;;10248186;28;20072;-65
2022/07/11 21:36:41;;;;;;;3.45;1.55;;;;;;;;;;10247894;28;20087;-64
2022/07/11 21:41:40;;;;;;;2.97;1.67;;;;;;;;;;10247877;28;20069;-64
2022/07/11 21:46:38;;;;;;;6.90;1.70;;;;;;;;;;10242967;28;20095;-64
2022/07/11 21:51:37;;;;;;;2.45;1.63;;;;;;;;;;10247772;28;20091;-64
2022/07/11 21:56:37;;;;;;;3.15;1.40;;;;;;;;;;10250511;28;20048;-64
2022/07/11 22:01:35;;;;;;;4.15;1.75;;;;;;;;;;10250484;28;20111;-63
2022/07/11 22:06:33;;;;;;;4.85;1.38;;;;;;;;;;10249001;28;20045;-63
2022/07/11 22:11:32;;;;;;;2.60;1.60;;;;;;;;;;10233476;28;20072;-65
2022/07/11 22:16:32;;;;;;;3.58;1.80;;;;;;;;;;10239025;28;20049;-66
2022/07/11 22:21:30;;;;;;;6.90;1.42;;;;;;;;;;10238335;28;20077;-64
2022/07/11 22:26:28;;;;;;;2.70;1.48;;;;;;;;;;10249832;28;20074;-64
2022/07/11 22:31:29;;;;;;;2.17;1.50;;;;;;;;;;10249253;28;20076;-63
2022/07/11 22:36:28;;;;;;;3.33;1.50;;;;;;;;;;10249664;28;20057;-63
2022/07/11 22:41:27;;;;;;;4.90;1.63;;;;;;;;;;10247565;28;20081;-63
2022/07/11 22:46:25;;;;;;;2.85;1.83;;;;;;;;;;10249515;28;20080;-64
2022/07/11 22:51:45;;;;;;;2.75;1.73;;;;;;;;;;10243949;28;20053;-62
2022/07/11 22:56:43;;;;;;;2.67;1.92;;;;;;;;;;10248239;28;20498;-64
2022/07/11 23:01:42;;;;;;;3.53;1.88;;;;;;;;;;10233226;28;20076;-63
2022/07/11 23:06:40;;;;;;;4.13;1.42;;;;;;;;;;10248583;28;20076;-63
2022/07/11 23:11:40;;;;;;;5.68;2.47;;;;;;;;;;10249246;28;20111;-64
2022/07/11 23:16:38;;;;;;;7.43;1.88;;;;;;;;;;10243444;28;20077;-64
2022/07/11 23:21:37;;;;;;;2.83;1.75;;;;;;;;;;10245571;28;20080;-65
2022/07/11 23:26:35;;;;;;;4.35;1.70;;;;;;;;;;10249404;28;20087;-64
2022/07/11 23:31:35;;;;;;;3.53;1.63;;;;;;;;;;10248272;28;20069;-64
2022/07/11 23:36:33;;;;;;;2.35;1.63;;;;;;;;;;10247549;28;20064;-64
2022/07/11 23:41:31;;;;;;;2.70;1.33;;;;;;;;;;10246443;28;20080;-64
2022/07/11 23:46:30;;;;;;;1.58;1.10;;;;;;;;;;10235327;28;20076;-65
2022/07/11 23:51:30;;;;;;;2.92;1.73;;;;;;;;;;10235481;28;20053;-64
2022/07/11 23:56:29;;;;;;;7.28;2.58;;;;;;;;;;10236054;28;20080;-63
